sensor_id;sensor_type;location;lat;lon;timestamp;temperature;humidity
18384;DHT22;9318;48.644;9.456;2023-04-24T00:01:53;11.10;99.90
18384;DHT22;9318;48.644;9.456;2023-04-24T00:04:20;11.20;99.90
18384;DHT22;9318;48.644;9.456;2023-04-24T00:06:48;11.10;99.90
18384;DHT22;9318;48.644;9.456;2023-04-24T00:09:19;11.10;99.90
18384;DHT22;9318;48.644;9.456;2023-04-24T00:11:46;11.10;99.90
18384;DHT22;9318;48.644;9.456;2023-04-24T00:14:12;11.20;99.90
18384;DHT22;9318;48.644;9.456;2023-04-24T00:16:39;11.20;99.90
18384;DHT22;9318;48.644;9.456;2023-04-24T00:19:06;11.20;99.90
18384;DHT22;9318;48.644;9.456;2023-04-24T00:21:32;11.20;99.90
18384;DHT22;9318;48.644;9.456;2023-04-24T00:24:00;11.20;99.90
18384;DHT22;9318;48.644;9.456;2023-04-24T00:26:27;11.20;99.90
18384;DHT22;9318;48.644;9.456;2023-04-24T00:28:54;11.20;99.90
18384;DHT22;9318;48.644;9.456;2023-04-24T00:31:21;11.20;99.90
18384;DHT22;9318;48.644;9.456;2023-04-24T00:33:47;11.20;99.90
18384;DHT22;9318;48.644;9.456;2023-04-24T00:36:14;11.20;99.90
18384;DHT22;9318;48.644;9.456;2023-04-24T00:38:41;11.20;99.90
18384;DHT22;9318;48.644;9.456;2023-04-24T00:41:09;11.20;99.90
18384;DHT22;9318;48.644;9.456;2023-04-24T00:43:36;11.20;99.90
18384;DHT22;9318;48.644;9.456;2023-04-24T00:46:03;11.30;99.90
18384;DHT22;9318;48.644;9.456;2023-04-24T00:48:30;11.20;99.90
18384;DHT22;9318;48.644;9.456;2023-04-24T00:50:57;11.20;99.90
18384;DHT22;9318;48.644;9.456;2023-04-24T00:53:24;11.20;99.90
18384;DHT22;9318;48.644;9.456;2023-04-24T00:55:51;11.30;99.90
18384;DHT22;9318;48.644;9.456;2023-04-24T00:58:19;11.20;99.90
18384;DHT22;9318;48.644;9.456;2023-04-24T01:00:46;11.30;99.90
18384;DHT22;9318;48.644;9.456;2023-04-24T01:03:14;11.30;99.90
18384;DHT22;9318;48.644;9.456;2023-04-24T01:05:41;11.30;99.90
18384;DHT22;9318;48.644;9.456;2023-04-24T01:08:08;11.30;99.90
18384;DHT22;9318;48.644;9.456;2023-04-24T01:10:36;11.30;99.90
18384;DHT22;9318;48.644;9.456;2023-04-24T01:13:03;11.30;99.90
18384;DHT22;9318;48.644;9.456;2023-04-24T01:15:31;11.30;99.90
18384;DHT22;9318;48.644;9.456;2023-04-24T01:17:58;11.40;99.90
18384;DHT22;9318;48.644;9.456;2023-04-24T01:20:25;11.40;99.90
18384;DHT22;9318;48.644;9.456;2023-04-24T01:22:54;11.30;99.90
18384;DHT22;9318;48.644;9.456;2023-04-24T01:25:22;11.30;99.90
18384;DHT22;9318;48.644;9.456;2023-04-24T01:27:48;11.30;99.90
18384;DHT22;9318;48.644;9.456;2023-04-24T01:30:15;11.30;99.90
18384;DHT22;9318;48.644;9.456;2023-04-24T01:32:43;11.30;99.90
18384;DHT22;9318;48.644;9.456;2023-04-24T01:35:11;11.30;99.90
18384;DHT22;9318;48.644;9.456;2023-04-24T01:37:37;11.20;99.90
18384;DHT22;9318;48.644;9.456;2023-04-24T01:40:07;11.30;99.90
18384;DHT22;9318;48.644;9.456;2023-04-24T01:42:34;11.20;99.90
18384;DHT22;9318;48.644;9.456;2023-04-24T01:45:03;11.20;99.90
18384;DHT22;9318;48.644;9.456;2023-04-24T01:47:31;11.30;99.90
18384;DHT22;9318;48.644;9.456;2023-04-24T01:49:58;11.20;99.90
18384;DHT22;9318;48.644;9.456;2023-04-24T01:52:25;11.20;99.90
18384;DHT22;9318;48.644;9.456;2023-04-24T01:54:52;11.20;99.90
18384;DHT22;9318;48.644;9.456;2023-04-24T01:57:23;11.20;99.90
18384;DHT22;9318;48.644;9.456;2023-04-24T01:59:51;11.20;99.90
18384;DHT22;9318;48.644;9.456;2023-04-24T02:02:17;11.20;99.90
18384;DHT22;9318;48.644;9.456;2023-04-24T02:04:46;11.20;99.90
18384;DHT22;9318;48.644;9.456;2023-04-24T02:07:13;11.20;99.90
18384;DHT22;9318;48.644;9.456;2023-04-24T02:09:40;11.20;99.90
18384;DHT22;9318;48.644;9.456;2023-04-24T02:12:06;11.20;99.90
18384;DHT22;9318;48.644;9.456;2023-04-24T02:14:34;11.20;99.90
18384;DHT22;9318;48.644;9.456;2023-04-24T02:17:01;11.20;99.90
18384;DHT22;9318;48.644;9.456;2023-04-24T02:19:28;11.20;99.90
18384;DHT22;9318;48.644;9.456;2023-04-24T02:21:55;11.20;99.90
18384;DHT22;9318;48.644;9.456;2023-04-24T02:24:21;11.20;99.90
18384;DHT22;9318;48.644;9.456;2023-04-24T02:26:48;11.20;99.90
18384;DHT22;9318;48.644;9.456;2023-04-24T02:29:15;11.10;99.90
18384;DHT22;9318;48.644;9.456;2023-04-24T02:31:43;11.20;99.90
18384;DHT22;9318;48.644;9.456;2023-04-24T02:34:10;11.10;99.90
18384;DHT22;9318;48.644;9.456;2023-04-24T02:36:37;11.00;99.90
18384;DHT22;9318;48.644;9.456;2023-04-24T02:39:03;11.00;99.90
18384;DHT22;9318;48.644;9.456;2023-04-24T02:41:30;11.00;99.90
18384;DHT22;9318;48.644;9.456;2023-04-24T02:43:58;11.00;99.90
18384;DHT22;9318;48.644;9.456;2023-04-24T02:46:25;11.00;99.90
18384;DHT22;9318;48.644;9.456;2023-04-24T02:48:53;11.10;99.90
18384;DHT22;9318;48.644;9.456;2023-04-24T02:51:20;11.20;99.90
18384;DHT22;9318;48.644;9.456;2023-04-24T02:53:47;11.30;99.90
18384;DHT22;9318;48.644;9.456;2023-04-24T02:56:13;11.30;99.90
18384;DHT22;9318;48.644;9.456;2023-04-24T02:58:40;11.30;99.90
18384;DHT22;9318;48.644;9.456;2023-04-24T03:01:07;11.30;99.90
18384;DHT22;9318;48.644;9.456;2023-04-24T03:03:35;11.30;99.90
18384;DHT22;9318;48.644;9.456;2023-04-24T03:06:03;11.40;99.90
18384;DHT22;9318;48.644;9.456;2023-04-24T03:08:31;11.40;99.90
18384;DHT22;9318;48.644;9.456;2023-04-24T03:10:57;11.40;99.90
18384;DHT22;9318;48.644;9.456;2023-04-24T03:13:24;11.40;99.90
18384;DHT22;9318;48.644;9.456;2023-04-24T03:15:51;11.30;99.90
18384;DHT22;9318;48.644;9.456;2023-04-24T03:18:18;11.30;99.90
18384;DHT22;9318;48.644;9.456;2023-04-24T03:20:45;11.30;99.90
18384;DHT22;9318;48.644;9.456;2023-04-24T03:23:14;11.30;99.90
18384;DHT22;9318;48.644;9.456;2023-04-24T03:25:40;11.20;99.90
18384;DHT22;9318;48.644;9.456;2023-04-24T03:28:08;11.20;99.90
18384;DHT22;9318;48.644;9.456;2023-04-24T03:30:35;11.10;99.90
18384;DHT22;9318;48.644;9.456;2023-04-24T03:33:01;11.10;99.90
18384;DHT22;9318;48.644;9.456;2023-04-24T03:35:28;11.10;99.90
18384;DHT22;9318;48.644;9.456;2023-04-24T03:37:55;11.10;99.90
18384;DHT22;9318;48.644;9.456;2023-04-24T03:40:23;11.10;99.90
18384;DHT22;9318;48.644;9.456;2023-04-24T03:42:50;11.10;99.90
18384;DHT22;9318;48.644;9.456;2023-04-24T03:45:17;11.10;99.90
18384;DHT22;9318;48.644;9.456;2023-04-24T03:47:43;11.10;99.90
18384;DHT22;9318;48.644;9.456;2023-04-24T03:50:10;11.10;99.90
18384;DHT22;9318;48.644;9.456;2023-04-24T03:52:37;11.10;99.90
18384;DHT22;9318;48.644;9.456;2023-04-24T03:55:04;11.00;99.90
18384;DHT22;9318;48.644;9.456;2023-04-24T03:57:33;11.00;99.90
18384;DHT22;9318;48.644;9.456;2023-04-24T03:59:59;10.90;99.90
18384;DHT22;9318;48.644;9.456;2023-04-24T04:02:28;11.00;99.90
18384;DHT22;9318;48.644;9.456;2023-04-24T04:04:54;11.00;99.90
18384;DHT22;9318;48.644;9.456;2023-04-24T04:07:21;11.00;99.90
18384;DHT22;9318;48.644;9.456;2023-04-24T04:09:48;11.00;99.90
18384;DHT22;9318;48.644;9.456;2023-04-24T04:12:15;11.00;99.90
18384;DHT22;9318;48.644;9.456;2023-04-24T04:14:43;11.00;99.90
18384;DHT22;9318;48.644;9.456;2023-04-24T04:17:09;11.00;99.90
18384;DHT22;9318;48.644;9.456;2023-04-24T04:19:36;11.00;99.90
18384;DHT22;9318;48.644;9.456;2023-04-24T04:22:03;11.00;99.90
18384;DHT22;9318;48.644;9.456;2023-04-24T04:24:29;10.90;99.90
18384;DHT22;9318;48.644;9.456;2023-04-24T04:26:56;11.10;99.90
18384;DHT22;9318;48.644;9.456;2023-04-24T04:29:23;11.10;99.90
18384;DHT22;9318;48.644;9.456;2023-04-24T04:31:52;11.10;99.90
18384;DHT22;9318;48.644;9.456;2023-04-24T04:34:20;11.10;99.90
18384;DHT22;9318;48.644;9.456;2023-04-24T04:36:48;11.10;99.90
18384;DHT22;9318;48.644;9.456;2023-04-24T04:39:15;11.10;99.90
18384;DHT22;9318;48.644;9.456;2023-04-24T04:41:44;11.10;99.90
18384;DHT22;9318;48.644;9.456;2023-04-24T04:44:14;11.20;99.90
18384;DHT22;9318;48.644;9.456;2023-04-24T04:46:41;11.20;99.90
18384;DHT22;9318;48.644;9.456;2023-04-24T04:49:09;11.10;99.90
18384;DHT22;9318;48.644;9.456;2023-04-24T04:51:36;11.10;99.90
18384;DHT22;9318;48.644;9.456;2023-04-24T04:54:03;11.20;99.90
18384;DHT22;9318;48.644;9.456;2023-04-24T04:56:30;11.10;99.90
18384;DHT22;9318;48.644;9.456;2023-04-24T04:58:56;11.00;99.90
18384;DHT22;9318;48.644;9.456;2023-04-24T05:01:24;11.00;99.90
18384;DHT22;9318;48.644;9.456;2023-04-24T05:03:53;11.00;99.90
18384;DHT22;9318;48.644;9.456;2023-04-24T05:06:21;10.90;99.90
18384;DHT22;9318;48.644;9.456;2023-04-24T05:08:47;10.80;99.90
18384;DHT22;9318;48.644;9.456;2023-04-24T05:11:14;10.80;99.90
18384;DHT22;9318;48.644;9.456;2023-04-24T05:13:41;10.80;99.90
18384;DHT22;9318;48.644;9.456;2023-04-24T05:16:08;10.80;99.90
18384;DHT22;9318;48.644;9.456;2023-04-24T05:18:34;10.80;99.90
18384;DHT22;9318;48.644;9.456;2023-04-24T05:21:01;10.80;99.90
18384;DHT22;9318;48.644;9.456;2023-04-24T05:23:29;10.70;99.90
18384;DHT22;9318;48.644;9.456;2023-04-24T05:25:56;10.70;99.90
18384;DHT22;9318;48.644;9.456;2023-04-24T05:28:23;10.70;99.90
18384;DHT22;9318;48.644;9.456;2023-04-24T05:30:53;10.70;99.90
18384;DHT22;9318;48.644;9.456;2023-04-24T05:33:20;10.70;99.90
18384;DHT22;9318;48.644;9.456;2023-04-24T05:35:47;10.70;99.90
18384;DHT22;9318;48.644;9.456;2023-04-24T05:38:14;10.60;99.90
18384;DHT22;9318;48.644;9.456;2023-04-24T05:40:44;10.70;99.90
18384;DHT22;9318;48.644;9.456;2023-04-24T05:43:11;10.60;99.90
18384;DHT22;9318;48.644;9.456;2023-04-24T05:45:38;10.70;99.90
18384;DHT22;9318;48.644;9.456;2023-04-24T05:48:05;10.70;99.90
18384;DHT22;9318;48.644;9.456;2023-04-24T05:50:32;10.70;99.90
18384;DHT22;9318;48.644;9.456;2023-04-24T05:52:58;10.70;99.90
18384;DHT22;9318;48.644;9.456;2023-04-24T05:55:27;10.70;99.90
18384;DHT22;9318;48.644;9.456;2023-04-24T05:57:55;10.70;99.90
18384;DHT22;9318;48.644;9.456;2023-04-24T06:00:24;10.70;99.90
18384;DHT22;9318;48.644;9.456;2023-04-24T06:02:51;10.70;99.90
18384;DHT22;9318;48.644;9.456;2023-04-24T06:05:18;10.70;99.90
18384;DHT22;9318;48.644;9.456;2023-04-24T06:07:44;10.80;99.90
18384;DHT22;9318;48.644;9.456;2023-04-24T06:10:11;10.90;99.90
18384;DHT22;9318;48.644;9.456;2023-04-24T06:12:38;11.00;99.90
18384;DHT22;9318;48.644;9.456;2023-04-24T06:15:07;11.10;99.90
18384;DHT22;9318;48.644;9.456;2023-04-24T06:17:34;11.10;99.90
18384;DHT22;9318;48.644;9.456;2023-04-24T06:20:01;11.00;99.90
18384;DHT22;9318;48.644;9.456;2023-04-24T06:22:29;11.00;99.90
18384;DHT22;9318;48.644;9.456;2023-04-24T06:24:55;11.00;99.90
18384;DHT22;9318;48.644;9.456;2023-04-24T06:27:22;11.00;99.90
18384;DHT22;9318;48.644;9.456;2023-04-24T06:29:49;11.10;99.90
18384;DHT22;9318;48.644;9.456;2023-04-24T06:32:21;11.10;99.90
18384;DHT22;9318;48.644;9.456;2023-04-24T06:34:48;11.20;99.90
18384;DHT22;9318;48.644;9.456;2023-04-24T06:37:15;12.10;99.90
18384;DHT22;9318;48.644;9.456;2023-04-24T06:39:42;13.80;99.90
18384;DHT22;9318;48.644;9.456;2023-04-24T06:42:08;15.40;99.90
18384;DHT22;9318;48.644;9.456;2023-04-24T06:44:35;17.30;99.90
18384;DHT22;9318;48.644;9.456;2023-04-24T06:47:06;19.10;99.90
18384;DHT22;9318;48.644;9.456;2023-04-24T06:49:34;21.00;99.90
18384;DHT22;9318;48.644;9.456;2023-04-24T06:52:01;21.90;99.90
18384;DHT22;9318;48.644;9.456;2023-04-24T06:54:28;22.20;99.90
18384;DHT22;9318;48.644;9.456;2023-04-24T06:56:55;22.50;99.90
18384;DHT22;9318;48.644;9.456;2023-04-24T06:59:22;23.10;99.60
18384;DHT22;9318;48.644;9.456;2023-04-24T07:01:49;23.40;98.40
18384;DHT22;9318;48.644;9.456;2023-04-24T07:04:16;24.30;96.10
18384;DHT22;9318;48.644;9.456;2023-04-24T07:06:45;24.90;94.20
18384;DHT22;9318;48.644;9.456;2023-04-24T07:09:11;24.40;93.50
18384;DHT22;9318;48.644;9.456;2023-04-24T07:11:40;23.90;93.70
18384;DHT22;9318;48.644;9.456;2023-04-24T07:14:13;24.30;94.10
18384;DHT22;9318;48.644;9.456;2023-04-24T07:16:39;23.90;92.80
18384;DHT22;9318;48.644;9.456;2023-04-24T07:19:06;22.70;94.10
18384;DHT22;9318;48.644;9.456;2023-04-24T07:21:33;22.00;93.60
18384;DHT22;9318;48.644;9.456;2023-04-24T07:24:01;21.70;94.20
18384;DHT22;9318;48.644;9.456;2023-04-24T07:26:29;21.90;92.20
18384;DHT22;9318;48.644;9.456;2023-04-24T07:28:56;21.90;93.40
18384;DHT22;9318;48.644;9.456;2023-04-24T07:31:23;21.10;92.90
18384;DHT22;9318;48.644;9.456;2023-04-24T07:33:50;20.00;95.30
18384;DHT22;9318;48.644;9.456;2023-04-24T07:36:16;18.70;96.10
18384;DHT22;9318;48.644;9.456;2023-04-24T07:38:44;17.40;98.20
18384;DHT22;9318;48.644;9.456;2023-04-24T07:41:12;16.50;99.50
18384;DHT22;9318;48.644;9.456;2023-04-24T07:43:39;15.60;99.90
18384;DHT22;9318;48.644;9.456;2023-04-24T07:46:06;15.00;99.90
18384;DHT22;9318;48.644;9.456;2023-04-24T07:48:33;14.50;99.90
18384;DHT22;9318;48.644;9.456;2023-04-24T07:51:00;14.20;99.90
18384;DHT22;9318;48.644;9.456;2023-04-24T07:53:27;14.00;99.90
18384;DHT22;9318;48.644;9.456;2023-04-24T07:55:54;14.10;99.90
18384;DHT22;9318;48.644;9.456;2023-04-24T07:58:22;14.10;99.90
18384;DHT22;9318;48.644;9.456;2023-04-24T08:00:49;14.30;99.90
18384;DHT22;9318;48.644;9.456;2023-04-24T08:03:15;14.30;99.90
18384;DHT22;9318;48.644;9.456;2023-04-24T08:05:45;14.50;99.90
18384;DHT22;9318;48.644;9.456;2023-04-24T08:08:11;14.80;99.90
18384;DHT22;9318;48.644;9.456;2023-04-24T08:10:38;14.70;99.90
18384;DHT22;9318;48.644;9.456;2023-04-24T08:13:05;14.30;99.90
18384;DHT22;9318;48.644;9.456;2023-04-24T08:15:33;13.90;99.90
18384;DHT22;9318;48.644;9.456;2023-04-24T08:18:00;13.50;99.90
18384;DHT22;9318;48.644;9.456;2023-04-24T08:20:26;13.20;99.90
18384;DHT22;9318;48.644;9.456;2023-04-24T08:22:53;13.10;99.90
18384;DHT22;9318;48.644;9.456;2023-04-24T08:25:20;13.00;99.90
18384;DHT22;9318;48.644;9.456;2023-04-24T08:27:48;12.90;99.90
18384;DHT22;9318;48.644;9.456;2023-04-24T08:30:15;12.90;99.90
18384;DHT22;9318;48.644;9.456;2023-04-24T08:32:43;12.90;99.90
18384;DHT22;9318;48.644;9.456;2023-04-24T08:35:10;12.90;99.90
18384;DHT22;9318;48.644;9.456;2023-04-24T08:37:37;12.70;99.90
18384;DHT22;9318;48.644;9.456;2023-04-24T08:40:08;12.80;99.90
18384;DHT22;9318;48.644;9.456;2023-04-24T08:42:38;12.90;99.90
18384;DHT22;9318;48.644;9.456;2023-04-24T08:45:06;13.30;99.90
18384;DHT22;9318;48.644;9.456;2023-04-24T08:47:35;14.10;99.90
18384;DHT22;9318;48.644;9.456;2023-04-24T08:50:04;15.80;99.90
18384;DHT22;9318;48.644;9.456;2023-04-24T08:52:32;18.10;99.90
18384;DHT22;9318;48.644;9.456;2023-04-24T08:55:00;19.60;99.80
18384;DHT22;9318;48.644;9.456;2023-04-24T08:57:27;19.80;98.60
18384;DHT22;9318;48.644;9.456;2023-04-24T08:59:54;19.80;97.80
18384;DHT22;9318;48.644;9.456;2023-04-24T09:02:22;20.20;97.80
18384;DHT22;9318;48.644;9.456;2023-04-24T09:04:50;20.00;97.00
18384;DHT22;9318;48.644;9.456;2023-04-24T09:07:19;19.60;97.80
18384;DHT22;9318;48.644;9.456;2023-04-24T09:09:46;18.80;96.20
18384;DHT22;9318;48.644;9.456;2023-04-24T09:12:14;17.70;97.00
18384;DHT22;9318;48.644;9.456;2023-04-24T09:14:41;16.40;98.00
18384;DHT22;9318;48.644;9.456;2023-04-24T09:17:10;15.40;99.90
18384;DHT22;9318;48.644;9.456;2023-04-24T09:19:37;14.70;99.90
18384;DHT22;9318;48.644;9.456;2023-04-24T09:22:05;14.20;99.90
18384;DHT22;9318;48.644;9.456;2023-04-24T09:24:34;13.90;99.90
18384;DHT22;9318;48.644;9.456;2023-04-24T09:27:02;13.60;99.90
18384;DHT22;9318;48.644;9.456;2023-04-24T09:29:29;13.70;99.90
18384;DHT22;9318;48.644;9.456;2023-04-24T09:31:58;13.60;99.90
18384;DHT22;9318;48.644;9.456;2023-04-24T09:34:26;13.40;99.90
18384;DHT22;9318;48.644;9.456;2023-04-24T09:36:53;13.10;99.90
18384;DHT22;9318;48.644;9.456;2023-04-24T09:39:20;12.80;99.90
18384;DHT22;9318;48.644;9.456;2023-04-24T09:41:51;12.50;99.90
18384;DHT22;9318;48.644;9.456;2023-04-24T09:44:19;12.30;99.90
18384;DHT22;9318;48.644;9.456;2023-04-24T09:46:50;12.10;99.90
18384;DHT22;9318;48.644;9.456;2023-04-24T09:49:22;12.00;99.90
18384;DHT22;9318;48.644;9.456;2023-04-24T09:51:49;11.90;99.90
18384;DHT22;9318;48.644;9.456;2023-04-24T09:54:17;11.80;99.90
18384;DHT22;9318;48.644;9.456;2023-04-24T09:56:45;11.80;99.90
18384;DHT22;9318;48.644;9.456;2023-04-24T09:59:15;11.80;99.90
18384;DHT22;9318;48.644;9.456;2023-04-24T10:01:42;11.70;99.90
18384;DHT22;9318;48.644;9.456;2023-04-24T10:04:17;12.00;99.90
18384;DHT22;9318;48.644;9.456;2023-04-24T10:06:45;12.30;99.90
18384;DHT22;9318;48.644;9.456;2023-04-24T10:09:13;13.60;99.90
18384;DHT22;9318;48.644;9.456;2023-04-24T10:11:42;14.60;99.90
18384;DHT22;9318;48.644;9.456;2023-04-24T10:14:12;14.90;99.90
18384;DHT22;9318;48.644;9.456;2023-04-24T10:16:43;15.00;99.90
18384;DHT22;9318;48.644;9.456;2023-04-24T10:19:12;14.80;99.90
18384;DHT22;9318;48.644;9.456;2023-04-24T10:21:41;14.60;99.90
18384;DHT22;9318;48.644;9.456;2023-04-24T10:24:12;14.40;99.90
18384;DHT22;9318;48.644;9.456;2023-04-24T10:26:40;14.10;99.90
18384;DHT22;9318;48.644;9.456;2023-04-24T10:29:07;14.00;99.90
18384;DHT22;9318;48.644;9.456;2023-04-24T10:31:36;14.00;99.90
18384;DHT22;9318;48.644;9.456;2023-04-24T10:34:05;13.80;99.90
18384;DHT22;9318;48.644;9.456;2023-04-24T10:36:33;13.90;99.90
18384;DHT22;9318;48.644;9.456;2023-04-24T10:39:02;13.90;99.90
18384;DHT22;9318;48.644;9.456;2023-04-24T10:41:30;14.30;99.90
18384;DHT22;9318;48.644;9.456;2023-04-24T10:44:06;14.80;99.90
18384;DHT22;9318;48.644;9.456;2023-04-24T10:46:34;15.30;99.90
18384;DHT22;9318;48.644;9.456;2023-04-24T10:49:05;15.40;99.90
18384;DHT22;9318;48.644;9.456;2023-04-24T10:51:45;15.30;99.90
18384;DHT22;9318;48.644;9.456;2023-04-24T10:54:23;15.00;99.90
18384;DHT22;9318;48.644;9.456;2023-04-24T10:56:50;14.70;99.90
18384;DHT22;9318;48.644;9.456;2023-04-24T10:59:24;14.30;99.90
18384;DHT22;9318;48.644;9.456;2023-04-24T11:01:53;14.10;99.90
18384;DHT22;9318;48.644;9.456;2023-04-24T11:04:32;13.80;99.90
18384;DHT22;9318;48.644;9.456;2023-04-24T11:07:01;13.40;99.90
18384;DHT22;9318;48.644;9.456;2023-04-24T11:09:30;13.10;99.90
18384;DHT22;9318;48.644;9.456;2023-04-24T11:12:04;13.00;99.90
18384;DHT22;9318;48.644;9.456;2023-04-24T11:15:00;12.90;99.90
18384;DHT22;9318;48.644;9.456;2023-04-24T11:17:31;13.00;99.90
18384;DHT22;9318;48.644;9.456;2023-04-24T11:20:04;13.10;99.90
18384;DHT22;9318;48.644;9.456;2023-04-24T11:22:33;13.10;99.90
18384;DHT22;9318;48.644;9.456;2023-04-24T11:25:01;13.10;99.90
18384;DHT22;9318;48.644;9.456;2023-04-24T11:27:30;13.10;99.90
18384;DHT22;9318;48.644;9.456;2023-04-24T11:30:01;13.20;99.90
18384;DHT22;9318;48.644;9.456;2023-04-24T11:32:30;13.30;99.90
18384;DHT22;9318;48.644;9.456;2023-04-24T11:34:58;13.30;99.90
18384;DHT22;9318;48.644;9.456;2023-04-24T11:37:28;13.30;99.90
18384;DHT22;9318;48.644;9.456;2023-04-24T11:39:57;13.20;99.90
18384;DHT22;9318;48.644;9.456;2023-04-24T11:42:24;13.10;99.90
18384;DHT22;9318;48.644;9.456;2023-04-24T11:44:52;13.00;99.90
18384;DHT22;9318;48.644;9.456;2023-04-24T11:47:19;13.00;99.90
18384;DHT22;9318;48.644;9.456;2023-04-24T11:49:46;13.00;99.90
18384;DHT22;9318;48.644;9.456;2023-04-24T11:52:15;13.00;99.90
18384;DHT22;9318;48.644;9.456;2023-04-24T11:54:48;13.00;99.90
18384;DHT22;9318;48.644;9.456;2023-04-24T11:57:15;13.20;99.90
18384;DHT22;9318;48.644;9.456;2023-04-24T11:59:42;13.20;99.90
18384;DHT22;9318;48.644;9.456;2023-04-24T12:02:09;13.30;99.90
18384;DHT22;9318;48.644;9.456;2023-04-24T12:04:45;13.30;99.90
18384;DHT22;9318;48.644;9.456;2023-04-24T12:07:12;13.30;99.90
18384;DHT22;9318;48.644;9.456;2023-04-24T12:09:43;13.30;99.90
18384;DHT22;9318;48.644;9.456;2023-04-24T12:12:12;13.20;99.90
18384;DHT22;9318;48.644;9.456;2023-04-24T12:14:49;13.10;99.90
18384;DHT22;9318;48.644;9.456;2023-04-24T12:17:17;12.90;99.90
18384;DHT22;9318;48.644;9.456;2023-04-24T12:19:47;12.70;99.90
18384;DHT22;9318;48.644;9.456;2023-04-24T12:22:16;12.50;99.90
18384;DHT22;9318;48.644;9.456;2023-04-24T12:24:58;12.30;99.90
18384;DHT22;9318;48.644;9.456;2023-04-24T12:27:29;12.40;99.90
18384;DHT22;9318;48.644;9.456;2023-04-24T12:29:56;12.60;99.90
18384;DHT22;9318;48.644;9.456;2023-04-24T12:32:24;12.70;99.90
18384;DHT22;9318;48.644;9.456;2023-04-24T12:34:51;12.90;99.90
18384;DHT22;9318;48.644;9.456;2023-04-24T12:37:18;12.90;99.90
18384;DHT22;9318;48.644;9.456;2023-04-24T12:39:59;12.90;99.90
18384;DHT22;9318;48.644;9.456;2023-04-24T12:42:28;12.80;99.90
18384;DHT22;9318;48.644;9.456;2023-04-24T12:44:59;12.70;99.90
18384;DHT22;9318;48.644;9.456;2023-04-24T12:47:26;12.70;99.90
18384;DHT22;9318;48.644;9.456;2023-04-24T12:49:53;12.60;99.90
18384;DHT22;9318;48.644;9.456;2023-04-24T12:52:21;12.60;99.90
18384;DHT22;9318;48.644;9.456;2023-04-24T12:54:49;12.60;99.90
18384;DHT22;9318;48.644;9.456;2023-04-24T12:57:16;12.50;99.90
18384;DHT22;9318;48.644;9.456;2023-04-24T12:59:44;12.50;99.90
18384;DHT22;9318;48.644;9.456;2023-04-24T13:02:11;12.50;99.90
18384;DHT22;9318;48.644;9.456;2023-04-24T13:04:38;12.50;99.90
18384;DHT22;9318;48.644;9.456;2023-04-24T13:07:05;12.50;99.90
18384;DHT22;9318;48.644;9.456;2023-04-24T13:09:33;12.40;99.90
18384;DHT22;9318;48.644;9.456;2023-04-24T13:12:00;12.40;99.90
18384;DHT22;9318;48.644;9.456;2023-04-24T13:14:27;12.50;99.90
18384;DHT22;9318;48.644;9.456;2023-04-24T13:16:55;12.60;99.90
18384;DHT22;9318;48.644;9.456;2023-04-24T13:19:23;12.60;99.90
18384;DHT22;9318;48.644;9.456;2023-04-24T13:21:50;12.60;99.90
18384;DHT22;9318;48.644;9.456;2023-04-24T13:24:17;12.40;99.90
18384;DHT22;9318;48.644;9.456;2023-04-24T13:26:44;12.10;99.90
18384;DHT22;9318;48.644;9.456;2023-04-24T13:29:11;11.80;99.90
18384;DHT22;9318;48.644;9.456;2023-04-24T13:31:37;11.60;99.90
18384;DHT22;9318;48.644;9.456;2023-04-24T13:34:05;11.40;99.90
18384;DHT22;9318;48.644;9.456;2023-04-24T13:36:32;11.20;99.90
18384;DHT22;9318;48.644;9.456;2023-04-24T13:38:59;11.30;99.90
18384;DHT22;9318;48.644;9.456;2023-04-24T13:41:26;11.40;99.90
18384;DHT22;9318;48.644;9.456;2023-04-24T13:43:53;11.70;99.90
18384;DHT22;9318;48.644;9.456;2023-04-24T13:46:19;11.90;99.90
18384;DHT22;9318;48.644;9.456;2023-04-24T13:48:46;12.20;99.90
18384;DHT22;9318;48.644;9.456;2023-04-24T13:51:14;12.30;99.90
18384;DHT22;9318;48.644;9.456;2023-04-24T13:53:41;12.40;99.90
18384;DHT22;9318;48.644;9.456;2023-04-24T13:56:08;12.40;99.90
18384;DHT22;9318;48.644;9.456;2023-04-24T13:58:34;12.50;99.90
18384;DHT22;9318;48.644;9.456;2023-04-24T14:01:02;12.60;99.90
18384;DHT22;9318;48.644;9.456;2023-04-24T14:03:29;12.70;99.90
18384;DHT22;9318;48.644;9.456;2023-04-24T14:05:56;12.70;99.90
18384;DHT22;9318;48.644;9.456;2023-04-24T14:08:24;12.70;99.90
18384;DHT22;9318;48.644;9.456;2023-04-24T14:10:51;12.70;99.90
18384;DHT22;9318;48.644;9.456;2023-04-24T14:13:18;12.60;99.90
18384;DHT22;9318;48.644;9.456;2023-04-24T14:15:45;12.50;99.90
18384;DHT22;9318;48.644;9.456;2023-04-24T14:18:12;12.30;99.90
18384;DHT22;9318;48.644;9.456;2023-04-24T14:20:39;12.00;99.90
18384;DHT22;9318;48.644;9.456;2023-04-24T14:23:06;11.60;99.90
18384;DHT22;9318;48.644;9.456;2023-04-24T14:25:34;11.30;99.90
18384;DHT22;9318;48.644;9.456;2023-04-24T14:28:01;11.20;99.90
18384;DHT22;9318;48.644;9.456;2023-04-24T14:30:27;11.30;99.90
18384;DHT22;9318;48.644;9.456;2023-04-24T14:32:54;11.50;99.90
18384;DHT22;9318;48.644;9.456;2023-04-24T14:35:21;11.80;99.90
18384;DHT22;9318;48.644;9.456;2023-04-24T14:37:48;12.00;99.90
18384;DHT22;9318;48.644;9.456;2023-04-24T14:40:15;12.30;99.90
18384;DHT22;9318;48.644;9.456;2023-04-24T14:42:43;12.40;99.90
18384;DHT22;9318;48.644;9.456;2023-04-24T14:45:11;12.50;99.90
18384;DHT22;9318;48.644;9.456;2023-04-24T14:47:37;12.50;99.90
18384;DHT22;9318;48.644;9.456;2023-04-24T14:50:05;12.50;99.90
18384;DHT22;9318;48.644;9.456;2023-04-24T14:52:33;12.40;99.90
18384;DHT22;9318;48.644;9.456;2023-04-24T14:55:00;12.40;99.90
18384;DHT22;9318;48.644;9.456;2023-04-24T14:57:27;12.60;99.90
18384;DHT22;9318;48.644;9.456;2023-04-24T14:59:55;12.70;99.90
18384;DHT22;9318;48.644;9.456;2023-04-24T15:02:22;12.70;99.90
18384;DHT22;9318;48.644;9.456;2023-04-24T15:04:49;12.60;99.90
18384;DHT22;9318;48.644;9.456;2023-04-24T15:07:16;12.50;99.90
18384;DHT22;9318;48.644;9.456;2023-04-24T15:09:42;12.20;99.90
18384;DHT22;9318;48.644;9.456;2023-04-24T15:12:09;12.20;99.90
18384;DHT22;9318;48.644;9.456;2023-04-24T15:14:37;12.10;99.90
18384;DHT22;9318;48.644;9.456;2023-04-24T15:17:05;12.10;99.90
18384;DHT22;9318;48.644;9.456;2023-04-24T15:19:32;12.20;99.90
18384;DHT22;9318;48.644;9.456;2023-04-24T15:21:59;12.20;99.90
18384;DHT22;9318;48.644;9.456;2023-04-24T15:24:26;12.40;99.90
18384;DHT22;9318;48.644;9.456;2023-04-24T15:26:53;12.60;99.90
18384;DHT22;9318;48.644;9.456;2023-04-24T15:29:20;12.70;99.90
18384;DHT22;9318;48.644;9.456;2023-04-24T15:31:47;12.50;99.90
18384;DHT22;9318;48.644;9.456;2023-04-24T15:34:15;12.40;99.90
18384;DHT22;9318;48.644;9.456;2023-04-24T15:36:42;12.30;99.90
18384;DHT22;9318;48.644;9.456;2023-04-24T15:39:08;12.10;99.90
18384;DHT22;9318;48.644;9.456;2023-04-24T15:41:36;12.10;99.90
18384;DHT22;9318;48.644;9.456;2023-04-24T15:44:02;12.10;99.90
18384;DHT22;9318;48.644;9.456;2023-04-24T15:46:29;12.10;99.90
18384;DHT22;9318;48.644;9.456;2023-04-24T15:48:56;12.10;99.90